Time;durP1;ratioP1;P1;durP2;ratioP2;P2;SDS_P1;SDS_P2;PMS_P1;PMS_P2;Temp;Humidity;BMP_temperature;BMP_pressure;BME280_temperature;BME280_humidity;BME280_pressure;Samples;Min_cycle;Max_cycle;Signal;HPM_P1;HPM_P2
2021/01/29 00:01:30;;;;;;;27.38;9.98;;;;;;;;;;5028212;28;20034;-68
2021/01/29 00:03:55;;;;;;;26.10;10.23;;;4.80;99.90;;;;;;5012331;28;20025;-68
2021/01/29 00:06:21;;;;;;;40.08;11.77;;;;;;;;;;5022192;28;20081;-68
2021/01/29 00:08:47;;;;;;;34.40;10.80;;;;;;;;;;5017398;28;20721;-68
2021/01/29 00:11:14;;;;;;;30.45;11.55;;;5.00;99.90;;;;;;5021855;28;20439;-68
2021/01/29 00:13:40;;;;;;;38.70;11.80;;;;;;;;;;5020897;28;20064;-68
2021/01/29 00:16:06;;;;;;;27.73;10.45;;;5.10;99.90;;;;;;5016217;28;20049;-68
2021/01/29 00:18:32;;;;;;;33.25;11.35;;;;;;;;;;5018577;28;20037;-68
2021/01/29 00:20:58;;;;;;;29.13;10.43;;;;;;;;;;5035130;28;20477;-68
2021/01/29 00:23:24;;;;;;;32.03;11.80;;;;;;;;;;5039050;28;20074;-68
2021/01/29 00:25:52;;;;;;;30.95;9.85;;;5.50;99.90;;;;;;5025345;28;20021;-68
2021/01/29 00:28:19;;;;;;;34.08;12.07;;;5.50;99.90;;;;;;5021491;28;20489;-68
2021/01/29 00:30:45;;;;;;;27.27;9.48;;;5.50;99.90;;;;;;5036856;28;20370;-68
2021/01/29 00:33:13;;;;;;;25.33;8.98;;;5.50;99.90;;;;;;5024664;28;20042;-70
2021/01/29 00:35:39;;;;;;;29.40;10.38;;;;;;;;;;5025812;28;20386;-70
2021/01/29 00:38:06;;;;;;;24.70;9.57;;;5.60;99.90;;;;;;5025286;28;20671;-72
2021/01/29 00:40:32;;;;;;;23.98;9.73;;;5.60;99.90;;;;;;5030111;28;20052;-70
2021/01/29 00:42:58;;;;;;;23.05;8.95;;;5.70;99.90;;;;;;5021923;28;20100;-67
2021/01/29 00:45:27;;;;;;;20.67;8.82;;;5.70;99.90;;;;;;5028829;28;20148;-70
2021/01/29 00:47:53;;;;;;;28.50;10.10;;;;;;;;;;5029864;28;20026;-70
2021/01/29 00:50:19;;;;;;;24.83;9.68;;;;;;;;;;5019436;28;20111;-67
2021/01/29 00:52:45;;;;;;;25.88;9.88;;;;;;;;;;5021177;28;20057;-66
2021/01/29 00:55:12;;;;;;;29.00;10.45;;;5.90;99.90;;;;;;5030000;28;20029;-66
2021/01/29 00:57:38;;;;;;;29.20;10.35;;;6.20;99.90;;;;;;5035253;28;20645;-66
2021/01/29 01:00:06;;;;;;;26.77;9.50;;;;;;;;;;5031055;28;20189;-66
2021/01/29 01:02:32;;;;;;;32.28;11.93;;;;;;;;;;5025771;28;20025;-66
2021/01/29 01:04:58;;;;;;;32.53;11.02;;;;;;;;;;5019421;28;20030;-66
2021/01/29 01:07:24;;;;;;;25.70;10.70;;;;;;;;;;5019523;28;21357;-66
2021/01/29 01:09:50;;;;;;;33.00;10.90;;;;;;;;;;5032122;28;20029;-67
2021/01/29 01:12:16;;;;;;;31.63;10.75;;;;;;;;;;5016277;28;20030;-66
2021/01/29 01:14:42;;;;;;;32.40;11.77;;;;;;;;;;5015480;28;20044;-65
2021/01/29 01:17:08;;;;;;;36.65;12.00;;;6.10;99.90;;;;;;5012037;28;20096;-66
2021/01/29 01:19:36;;;;;;;41.92;12.80;;;;;;;;;;5021173;28;20082;-65
2021/01/29 01:22:07;;;;;;;49.55;15.93;;;6.20;99.90;;;;;;5024608;28;20033;-66
2021/01/29 01:24:40;;;;;;;40.40;12.88;;;6.30;99.90;;;;;;5013312;28;20018;-65
2021/01/29 01:27:17;;;;;;;39.47;13.77;;;6.20;99.90;;;;;;5016812;28;20088;-65
2021/01/29 01:29:43;;;;;;;46.50;12.10;;;6.40;99.90;;;;;;5021099;28;20033;-65
2021/01/29 01:32:09;;;;;;;42.45;12.85;;;;;;;;;;5022151;28;20592;-66
2021/01/29 01:34:35;;;;;;;47.83;14.60;;;6.20;99.90;;;;;;5012777;28;20113;-65
2021/01/29 01:37:03;;;;;;;37.15;12.15;;;6.30;99.90;;;;;;5015759;28;20057;-65
2021/01/29 01:39:29;;;;;;;38.10;11.73;;;;;;;;;;5015159;28;20029;-67
2021/01/29 01:41:55;;;;;;;43.97;14.25;;;7.60;99.90;;;;;;5023851;28;20136;-66
2021/01/29 01:44:24;;;;;;;41.92;14.55;;;6.40;99.90;;;;;;5013184;28;20029;-66
2021/01/29 01:46:51;;;;;;;38.75;13.48;;;7.40;99.90;;;;;;5018734;28;20022;-66
2021/01/29 01:49:18;;;;;;;34.35;10.73;;;6.50;99.90;;;;;;5017921;28;20052;-65
2021/01/29 01:51:55;;;;;;;34.25;11.60;;;6.40;99.90;;;;;;5019235;28;20045;-65
2021/01/29 01:54:41;;;;;;;33.75;11.52;;;6.30;99.90;;;;;;5017252;28;20049;-66
2021/01/29 01:57:08;;;;;;;35.15;11.38;;;6.40;99.90;;;;;;5018913;28;20113;-66
2021/01/29 01:59:39;;;;;;;43.75;12.50;;;6.30;99.90;;;;;;5018206;28;20036;-68
2021/01/29 02:02:08;;;;;;;37.83;13.25;;;6.10;99.90;;;;;;5012500;28;20033;-68
2021/01/29 02:04:39;;;;;;;35.80;11.55;;;6.10;99.90;;;;;;5010733;28;20029;-66
2021/01/29 02:07:05;;;;;;;37.60;11.65;;;;;;;;;;5020634;28;20046;-66
2021/01/29 02:09:32;;;;;;;31.65;11.27;;;6.20;99.90;;;;;;5012457;28;20025;-66
2021/01/29 02:11:58;;;;;;;48.35;12.30;;;6.20;99.90;;;;;;5009722;28;20409;-66
2021/01/29 02:14:24;;;;;;;38.75;12.25;;;;;;;;;;5026822;28;20028;-67
2021/01/29 02:17:06;;;;;;;39.67;12.52;;;6.30;99.90;;;;;;5029651;28;20059;-66
2021/01/29 02:19:43;;;;;;;42.63;12.52;;;7.00;99.90;;;;;;5039485;28;20040;-66
2021/01/29 02:22:43;;;;;;;45.67;14.18;;;6.20;99.90;;;;;;5039685;28;20476;-66
2021/01/29 02:25:36;;;;;;;48.92;13.80;;;7.10;99.90;;;;;;5038063;28;20076;-66
2021/01/29 02:28:07;;;;;;;41.63;12.55;;;6.30;99.90;;;;;;5039315;28;20546;-66
2021/01/29 02:30:37;;;;;;;41.50;14.00;;;6.30;99.90;;;;;;5039872;28;20021;-67
2021/01/29 02:33:21;;;;;;;37.17;13.23;;;6.50;99.90;;;;;;5028854;28;20037;-66
2021/01/29 02:36:08;;;;;;;43.30;13.18;;;6.20;99.90;;;;;;5038564;28;20112;-66
2021/01/29 02:39:09;;;;;;;46.17;13.80;;;6.30;99.90;;;;;;5029491;28;20109;-67
2021/01/29 02:42:00;;;;;;;45.75;14.32;;;6.30;99.90;;;;;;5040796;28;20021;-67
2021/01/29 02:44:25;;;;;;;47.17;14.55;;;;;;;;;;5030756;28;20503;-67
2021/01/29 02:47:01;;;;;;;46.33;13.80;;;6.30;99.90;;;;;;5023367;28;20053;-66
2021/01/29 02:49:38;;;;;;;47.90;14.35;;;6.30;99.90;;;;;;5026231;28;20713;-66
2021/01/29 02:52:31;;;;;;;43.92;14.30;;;6.40;99.90;;;;;;5021143;28;20087;-66
2021/01/29 02:55:23;;;;;;;49.50;14.00;;;6.50;99.90;;;;;;5017584;28;20479;-66
2021/01/29 02:58:18;;;;;;;45.35;13.88;;;6.40;99.90;;;;;;5026634;28;20034;-66
2021/01/29 03:01:06;;;;;;;43.83;13.13;;;6.60;99.90;;;;;;5032799;28;20041;-66
2021/01/29 03:03:40;;;;;;;47.67;14.35;;;6.40;99.90;;;;;;5025249;28;20028;-66
2021/01/29 03:06:14;;;;;;;40.72;12.85;;;6.60;99.90;;;;;;5023805;28;20039;-66
2021/01/29 03:08:45;;;;;;;39.85;13.50;;;6.60;99.90;;;;;;5015632;28;20044;-66
2021/01/29 03:11:42;;;;;;;47.40;13.40;;;6.50;99.90;;;;;;5030308;28;20025;-66
2021/01/29 03:14:16;;;;;;;47.08;13.57;;;6.60;99.90;;;;;;5023237;28;20061;-66
2021/01/29 03:16:52;;;;;;;19.38;7.63;;;6.60;99.90;;;;;;5029632;28;20053;-66
2021/01/29 03:19:18;;;;;;;44.90;13.27;;;;;;;;;;5026343;28;20040;-66
2021/01/29 03:21:50;;;;;;;31.10;11.00;;;6.80;99.90;;;;;;5009155;28;20121;-66
2021/01/29 03:24:47;;;;;;;26.25;9.38;;;6.90;99.90;;;;;;5026887;28;20035;-66
2021/01/29 03:27:18;;;;;;;39.72;10.00;;;7.00;99.90;;;;;;5010021;28;20103;-68
2021/01/29 03:29:54;;;;;;;31.70;9.82;;;7.10;99.90;;;;;;5011791;28;20037;-68
2021/01/29 03:32:20;;;;;;;28.77;10.85;;;;;;;;;;5015870;28;20520;-67
2021/01/29 03:34:46;;;;;;;24.42;7.65;;;;;;;;;;5021437;28;20040;-66
2021/01/29 03:37:25;;;;;;;41.67;10.80;;;7.10;99.90;;;;;;5030092;28;20037;-69
2021/01/29 03:39:51;;;;;;;29.00;9.52;;;;;;;;;;5023266;28;20030;-69
2021/01/29 03:42:57;;;;;;;23.40;8.50;;;7.00;99.90;;;;;;5027014;28;20017;-67
2021/01/29 03:45:59;;;;;;;26.75;9.68;;;7.20;99.90;;;;;;5027775;28;20509;-67
2021/01/29 03:48:53;;;;;;;21.10;6.78;;;7.10;99.90;;;;;;5032076;28;20032;-69
2021/01/29 03:51:53;;;;;;;28.67;9.63;;;7.00;99.90;;;;;;5020151;28;20041;-68
2021/01/29 03:54:30;;;;;;;28.23;8.20;;;7.00;99.90;;;;;;5023459;28;20046;-68
2021/01/29 03:57:09;;;;;;;19.13;7.20;;;7.90;99.90;;;;;;5035616;28;20032;-68
2021/01/29 04:00:01;;;;;;;24.90;7.78;;;7.10;99.90;;;;;;5025677;28;20033;-68
2021/01/29 04:03:02;;;;;;;13.50;5.28;;;7.80;99.90;;;;;;5036824;28;20036;-69
2021/01/29 04:05:33;;;;;;;;;;;7.20;99.90;;;;;;5026102;28;20037;-69
2021/01/29 04:08:08;;;;;;;19.13;6.38;;;7.20;99.90;;;;;;5034336;28;19916;-69
2021/01/29 04:10:35;;;;;;;13.95;5.07;;;;;;;;;;5027418;28;20083;-69
2021/01/29 04:13:22;;;;;;;10.63;4.53;;;7.20;99.90;;;;;;5026670;28;20049;-69
2021/01/29 04:15:51;;;;;;;13.73;4.70;;;7.40;99.90;;;;;;5032668;28;20068;-69
2021/01/29 04:18:40;;;;;;;13.20;4.97;;;7.70;99.90;;;;;;5030056;28;20044;-69
2021/01/29 04:21:27;;;;;;;13.77;4.43;;;7.20;99.90;;;;;;5028344;28;20754;-69
2021/01/29 04:24:17;;;;;;;8.18;3.17;;;7.30;99.90;;;;;;5027071;28;20079;-69
2021/01/29 04:26:50;;;;;;;12.95;3.78;;;7.30;99.90;;;;;;5028719;28;20064;-69
2021/01/29 04:29:23;;;;;;;8.27;3.28;;;7.20;99.90;;;;;;5025515;28;20041;-69
2021/01/29 04:31:53;;;;;;;9.40;3.13;;;7.30;99.90;;;;;;5023660;28;20045;-69
2021/01/29 04:34:23;;;;;;;9.18;2.83;;;8.10;99.90;;;;;;5019974;28;20405;-69
2021/01/29 04:36:53;;;;;;;7.28;2.28;;;7.40;99.90;;;;;;5029166;28;20593;-69
2021/01/29 04:39:30;;;;;;;10.57;2.92;;;7.30;99.90;;;;;;5029059;28;20511;-69
2021/01/29 04:42:29;;;;;;;10.70;3.20;;;7.40;99.90;;;;;;5018910;28;20080;-68
2021/01/29 04:45:33;;;;;;;9.77;3.17;;;7.50;99.90;;;;;;5027285;28;20033;-69
2021/01/29 04:48:31;;;;;;;8.75;2.88;;;8.20;99.90;;;;;;5024054;28;20042;-69
2021/01/29 04:51:25;;;;;;;7.72;2.45;;;7.60;99.90;;;;;;5016205;28;20049;-69
2021/01/29 04:54:34;;;;;;;9.02;2.63;;;7.40;99.90;;;;;;5017844;28;20136;-69
2021/01/29 04:57:00;;;;;;;6.00;1.98;;;;;;;;;;5022063;28;20021;-69
2021/01/29 04:59:45;;;;;;;7.95;2.40;;;7.90;99.90;;;;;;5021932;28;20084;-68
2021/01/29 05:02:35;;;;;;;4.95;1.85;;;8.20;99.90;;;;;;5019437;28;20031;-69
2021/01/29 05:05:24;;;;;;;6.88;2.22;;;7.50;99.90;;;;;;5038213;28;20040;-68
2021/01/29 05:08:06;;;;;;;8.02;2.72;;;7.60;99.90;;;;;;5038225;28;20034;-69
2021/01/29 05:10:55;;;;;;;6.32;2.45;;;8.50;99.90;;;;;;5026739;28;20053;-68
2021/01/29 05:13:46;;;;;;;5.72;2.10;;;7.50;99.90;;;;;;5022368;28;20909;-68
2021/01/29 05:16:30;;;;;;;4.90;1.40;;;7.60;99.90;;;;;;5029320;28;20108;-68
2021/01/29 05:19:08;;;;;;;5.93;1.77;;;7.60;99.90;;;;;;5028571;28;20037;-68
2021/01/29 05:21:58;;;;;;;5.68;1.70;;;7.80;99.90;;;;;;5016591;28;20033;-68
2021/01/29 05:24:36;;;;;;;4.82;1.42;;;7.70;99.90;;;;;;5024376;28;20048;-68
2021/01/29 05:27:29;;;;;;;4.18;1.65;;;7.70;99.90;;;;;;5013166;28;20489;-68
2021/01/29 05:29:57;;;;;;;3.67;1.33;;;7.80;99.90;;;;;;5021148;28;20501;-68
2021/01/29 05:32:29;;;;;;;3.63;1.35;;;7.70;99.90;;;;;;5017629;28;20069;-68
2021/01/29 05:35:24;;;;;;;4.90;1.75;;;7.80;99.90;;;;;;5011027;28;20069;-69
2021/01/29 05:37:59;;;;;;;4.63;1.55;;;7.90;99.90;;;;;;5018239;28;20053;-68
2021/01/29 05:41:01;;;;;;;5.28;1.60;;;7.80;99.90;;;;;;5024290;28;20033;-69
2021/01/29 05:43:29;;;;;;;3.70;1.50;;;;;;;;;;5022326;28;20111;-69
2021/01/29 05:46:14;;;;;;;5.50;1.20;;;;;;;;;;5028436;28;20086;-69
2021/01/29 05:48:56;;;;;;;3.20;1.25;;;;;;;;;;5012928;28;20117;-68
2021/01/29 05:51:28;;;;;;;3.95;1.60;;;;;;;;;;5034362;28;20033;-68
2021/01/29 05:54:17;;;;;;;4.65;1.50;;;;;;;;;;5024803;28;20041;-68
2021/01/29 05:56:49;;;;;;;4.82;1.60;;;;;;;;;;5016537;28;20026;-69
2021/01/29 05:59:34;;;;;;;4.50;1.38;;;;;;;;;;5033550;28;20026;-68
2021/01/29 06:02:02;;;;;;;4.38;1.50;;;;;;;;;;5026245;28;20493;-69
2021/01/29 06:04:42;;;;;;;5.72;2.00;;;;;;;;;;5025824;28;20539;-69
2021/01/29 06:07:20;;;;;;;5.60;1.80;;;;;;;;;;5034137;28;20032;-69
2021/01/29 06:09:49;;;;;;;6.03;2.10;;;;;;;;;;5021728;28;20087;-69
2021/01/29 06:12:34;;;;;;;6.88;2.28;;;;;;;;;;5023307;28;20041;-68
2021/01/29 06:15:00;;;;;;;6.00;2.10;;;;;;;;;;5013578;28;20036;-67
2021/01/29 06:17:37;;;;;;;5.35;1.77;;;;;;;;;;5018474;28;20017;-69
2021/01/29 06:20:14;;;;;;;5.60;1.95;;;;;;;;;;5015540;28;20053;-70
2021/01/29 06:22:59;;;;;;;5.53;2.10;;;;;;;;;;5025265;28;20057;-68
2021/01/29 06:25:34;;;;;;;6.32;2.30;;;;;;;;;;5016082;28;20033;-67
2021/01/29 06:28:19;;;;;;;8.02;2.80;;;;;;;;;;5016414;28;20423;-67
2021/01/29 06:30:53;;;;;;;6.85;2.50;;;;;;;;;;5014134;28;20037;-68
2021/01/29 06:33:34;;;;;;;10.55;2.80;;;;;;;;;;5010355;28;20478;-67
2021/01/29 06:36:00;;;;;;;;;;;;;;;;;;5021474;28;20017;-67
2021/01/29 06:38:44;;;;;;;7.47;2.63;;;;;;;;;;5015369;28;19990;-67
2021/01/29 06:41:33;;;;;;;8.13;2.83;;;;;;;;;;5010682;28;20025;-67
2021/01/29 06:44:18;;;;;;;8.10;3.05;;;;;;;;;;5013624;28;20107;-67
2021/01/29 06:46:44;;;;;;;9.02;3.28;;;;;;;;;;5017851;28;20116;-67
2021/01/29 06:49:29;;;;;;;10.23;2.85;;;;;;;;;;5022162;28;20029;-68
2021/01/29 06:52:07;;;;;;;8.73;2.85;;;;;;;;;;5024292;28;20121;-68
2021/01/29 06:54:45;;;;;;;10.90;3.20;;;;;;;;;;5018355;28;20312;-69
2021/01/29 06:57:31;;;;;;;8.90;3.38;;;;;;;;;;5022908;28;20033;-69
2021/01/29 06:59:57;;;;;;;9.38;3.53;;;;;;;;;;5020076;28;20026;-69
2021/01/29 07:02:42;;;;;;;9.50;3.72;;;;;;;;;;5020548;28;20084;-69
2021/01/29 07:05:14;;;;;;;12.25;3.67;;;;;;;;;;5016079;28;20125;-69
2021/01/29 07:07:40;;;;;;;12.85;4.40;;;;;;;;;;5019257;28;20083;-68
2021/01/29 07:10:25;;;;;;;8.27;3.22;;;;;;;;;;5011264;28;20441;-67
2021/01/29 07:13:03;;;;;;;10.15;3.53;;;;;;;;;;5029405;28;20060;-67
2021/01/29 07:15:34;;;;;;;9.63;3.78;;;;;;;;;;5011723;28;20014;-68
2021/01/29 07:18:19;;;;;;;10.82;4.10;;;;;;;;;;5015089;28;20038;-68
2021/01/29 07:21:03;;;;;;;11.23;4.43;;;;;;;;;;5020284;28;20079;-69
2021/01/29 07:23:48;;;;;;;10.73;3.90;;;;;;;;;;5019833;28;20029;-69
2021/01/29 07:26:21;;;;;;;11.32;4.53;;;;;;;;;;5016646;28;20026;-69
2021/01/29 07:29:00;;;;;;;10.85;4.07;;;;;;;;;;5013103;28;20029;-69
2021/01/29 07:31:32;;;;;;;6.35;2.30;;;;;;;;;;5009579;28;20040;-68
2021/01/29 07:34:00;;;;;;;11.00;5.18;;;;;;;;;;5018703;28;20048;-70
2021/01/29 07:36:38;;;;;;;8.18;2.83;;;;;;;;;;5018207;28;20022;-68
2021/01/29 07:39:13;;;;;;;15.65;7.57;;;;;;;;;;5026641;28;20033;-70
2021/01/29 07:41:39;;;;;;;11.27;5.18;;;;;;;;;;5029166;28;20044;-69
2021/01/29 07:44:28;;;;;;;15.50;7.78;;;;;;;;;;5017849;28;20022;-70
2021/01/29 07:47:08;;;;;;;15.02;7.75;;;;;;;;;;5018584;28;20040;-69
2021/01/29 07:49:52;;;;;;;10.57;4.65;;;;;;;;;;5012706;28;20022;-70
2021/01/29 07:52:37;;;;;;;14.45;5.45;;;;;;;;;;5021397;28;20030;-70
2021/01/29 07:55:03;;;;;;;14.20;7.43;;;;;;;;;;5016084;28;20147;-69
2021/01/29 07:57:29;;;;;;;12.57;5.32;;;;;;;;;;5014255;28;20045;-70
2021/01/29 07:59:55;;;;;;;13.77;7.35;;;;;;;;;;5012628;28;20029;-69
2021/01/29 08:02:30;;;;;;;11.98;5.60;;;;;;;;;;5013542;28;20040;-69
2021/01/29 08:05:15;;;;;;;14.45;7.47;;;;;;;;;;5011376;28;20034;-69
2021/01/29 08:07:45;;;;;;;12.18;5.25;;;;;;;;;;5014381;28;20390;-69
2021/01/29 08:10:25;;;;;;;15.82;9.93;;;;;;;;;;5013111;28;20030;-69
2021/01/29 08:12:56;;;;;;;12.13;6.10;;;;;;;;;;5018867;28;20029;-71
2021/01/29 08:15:29;;;;;;;15.30;6.75;;;;;;;;;;5010708;28;20108;-69
2021/01/29 08:18:13;;;;;;;18.67;10.45;;;;;;;;;;5016554;28;20040;-71
2021/01/29 08:20:58;;;;;;;14.07;6.38;;;;;;;;;;5015585;28;20026;-68
2021/01/29 08:23:27;;;;;;;16.83;8.73;;;;;;;;;;5018253;28;20034;-68
2021/01/29 08:25:53;;;;;;;20.40;10.00;;;;;;;;;;5021820;28;20163;-71
2021/01/29 08:28:38;;;;;;;24.02;12.23;;;;;;;;;;5008031;28;20030;-70
2021/01/29 08:31:13;;;;;;;11.93;4.95;;;;;;;;;;5013227;28;20033;-69
2021/01/29 08:33:39;;;;;;;14.10;6.78;;;;;;;;;;5031173;28;20048;-69
2021/01/29 08:36:31;;;;;;;16.90;8.07;;;;;;;;;;5028776;28;20022;-70
2021/01/29 08:39:09;;;;;;;12.27;4.57;;;;;;;;;;5020681;28;20045;-70
2021/01/29 08:41:35;;;;;;;15.10;7.78;;;;;;;;;;5024029;28;20382;-71
2021/01/29 08:44:08;;;;;;;14.18;5.55;;;;;;;;;;5021033;28;20338;-70
2021/01/29 08:46:41;;;;;;;12.82;5.57;;;;;;;;;;5024744;28;20758;-70
2021/01/29 08:49:15;;;;;;;18.77;6.50;;;;;;;;;;5028235;28;20026;-70
2021/01/29 08:51:41;;;;;;;9.07;3.78;;;;;;;;;;5015363;28;20073;-70
2021/01/29 08:54:10;;;;;;;6.85;2.65;;;;;;;;;;5020570;28;20116;-71
2021/01/29 08:57:05;;;;;;;13.38;5.40;;;;;;;;;;5021957;28;20033;-71
2021/01/29 08:59:34;;;;;;;20.35;10.82;;;;;;;;;;5015523;28;20033;-70
2021/01/29 09:02:03;;;;;;;12.40;5.13;;;;;;;;;;5016379;28;20501;-70
2021/01/29 09:04:35;;;;;;;11.50;5.43;;;;;;;;;;5014440;28;20037;-70
2021/01/29 09:07:05;;;;;;;15.68;6.10;;;;;;;;;;5026573;28;20086;-71
2021/01/29 09:09:33;;;;;;;15.77;6.65;;;;;;;;;;5023420;28;20033;-71
2021/01/29 09:12:03;;;;;;;14.82;9.35;;;;;;;;;;5026213;28;20445;-71
2021/01/29 09:14:35;;;;;;;17.67;8.95;;;;;;;;;;5024395;28;20071;-70
2021/01/29 09:17:12;;;;;;;17.48;7.68;;;;;;;;;;5018459;28;20039;-71
2021/01/29 09:19:39;;;;;;;18.85;7.93;;;;;;;;;;5021976;28;20487;-72
2021/01/29 09:22:15;;;;;;;13.27;6.78;;;;;;;;;;5030297;28;20060;-70
2021/01/29 09:24:49;;;;;;;20.10;8.93;;;;;;;;;;5017318;28;20400;-71
2021/01/29 09:27:35;;;;;;;19.40;7.57;;;;;;;;;;5020056;28;20026;-71
2021/01/29 09:30:05;;;;;;;22.17;10.13;;;;;;;;;;5013666;28;20669;-73
2021/01/29 09:32:45;;;;;;;11.40;5.07;;;;;;;;;;5012381;28;20053;-70
2021/01/29 09:35:14;;;;;;;15.10;5.90;;;;;;;;;;5004656;28;20096;-72
2021/01/29 09:37:52;;;;;;;17.38;7.30;;;;;;;;;;5020286;28;20064;-73
2021/01/29 09:40:21;;;;;;;14.25;5.38;;;;;;;;;;5022183;28;20091;-71
2021/01/29 09:43:17;;;;;;;23.75;7.65;;;;;;;;;;5017897;28;20033;-69
2021/01/29 09:45:44;;;;;;;22.67;6.05;;;;;;;;;;4988460;28;20069;-71
2021/01/29 09:48:12;;;;;;;19.35;6.78;;;;;;;;;;5004246;28;20911;-70
2021/01/29 09:50:39;;;;;;;14.65;5.25;;;;;;;;;;5021950;28;20042;-71
2021/01/29 09:53:05;;;;;;;11.95;3.60;;;;;;;;;;5017345;28;20072;-70
2021/01/29 09:55:39;;;;;;;17.45;7.78;;;;;;;;;;5023015;28;20508;-70
2021/01/29 09:58:13;;;;;;;10.57;3.50;;;;;;;;;;5034050;28;20095;-70
2021/01/29 10:00:40;;;;;;;16.83;5.18;;;;;;;;;;5000592;28;20033;-69
2021/01/29 10:03:06;;;;;;;10.73;4.32;;;;;;;;;;5025493;28;20510;-69
2021/01/29 10:05:37;;;;;;;10.52;4.10;;;;;;;;;;5025170;28;20172;-69
2021/01/29 10:08:06;;;;;;;25.40;8.65;;;;;;;;;;5014325;28;20448;-70
2021/01/29 10:10:59;;;;;;;18.17;7.05;;;;;;;;;;5022675;28;20032;-69
2021/01/29 10:13:25;;;;;;;19.40;8.82;;;;;;;;;;5021939;28;20054;-69
2021/01/29 10:16:17;;;;;;;16.98;7.40;;;;;;;;;;5026976;28;20052;-69
2021/01/29 10:18:49;;;;;;;19.25;6.05;;;;;;;;;;5027161;28;20061;-69
2021/01/29 10:21:18;;;;;;;23.08;11.40;;;;;;;;;;5021371;28;20090;-70
2021/01/29 10:23:58;;;;;;;25.83;6.47;;;;;;;;;;5035907;28;20389;-70
2021/01/29 10:26:29;;;;;;;28.55;10.02;;;;;;;;;;5035395;28;20024;-69
2021/01/29 10:29:05;;;;;;;23.67;5.80;;;;;;;;;;5019660;28;20076;-69
2021/01/29 10:31:38;;;;;;;17.75;5.63;;;;;;;;;;5013731;28;20397;-70
2021/01/29 10:34:24;;;;;;;16.90;4.95;;;;;;;;;;5015395;28;20109;-70
2021/01/29 10:37:02;;;;;;;15.25;5.35;;;;;;;;;;5019636;28;20045;-70
2021/01/29 10:39:29;;;;;;;17.10;6.55;;;;;;;;;;5022414;28;20033;-70
2021/01/29 10:42:00;;;;;;;20.10;8.80;;;;;;;;;;5025873;28;20606;-70
2021/01/29 10:44:30;;;;;;;17.95;5.82;;;;;;;;;;5033581;28;20044;-68
2021/01/29 10:47:15;;;;;;;32.08;13.85;;;;;;;;;;5018862;28;20041;-68
2021/01/29 10:49:59;;;;;;;21.38;7.32;;;;;;;;;;5015724;28;20033;-68
2021/01/29 10:52:44;;;;;;;21.42;6.25;;;;;;;;;;5017268;28;20049;-68
2021/01/29 10:55:26;;;;;;;24.45;7.90;;;;;;;;;;5022836;28;20092;-68
2021/01/29 10:58:24;;;;;;;25.60;12.05;;;;;;;;;;5022283;28;20146;-68
2021/01/29 11:00:52;;;;;;;31.50;13.23;;;;;;;;;;5033212;28;20039;-68
2021/01/29 11:03:21;;;;;;;30.17;8.00;;;;;;;;;;5037808;28;20529;-69
2021/01/29 11:05:48;;;;;;;31.38;10.85;;;;;;;;;;5037700;28;20040;-68
2021/01/29 11:08:23;;;;;;;23.25;8.00;;;;;;;;;;5024681;28;20374;-69
2021/01/29 11:10:58;;;;;;;40.40;16.63;;;;;;;;;;5034422;28;20057;-69
2021/01/29 11:13:28;;;;;;;38.72;11.68;;;;;;;;;;5026850;28;20604;-68
2021/01/29 11:15:54;;;;;;;25.35;8.60;;;;;;;;;;5041853;28;20160;-68
2021/01/29 11:18:30;;;;;;;55.13;12.40;;;;;;;;;;5040214;28;20111;-68
2021/01/29 11:21:15;;;;;;;39.53;10.10;;;;;;;;;;5044161;28;20090;-68
2021/01/29 11:23:49;;;;;;;39.83;11.85;;;;;;;;;;5043502;28;20124;-68
2021/01/29 11:26:33;;;;;;;33.72;9.32;;;;;;;;;;5053585;28;20041;-68
2021/01/29 11:29:03;;;;;;;35.42;11.68;;;;;;;;;;5046847;28;20106;-68
2021/01/29 11:31:43;;;;;;;43.85;12.63;;;;;;;;;;5046283;28;20106;-68
2021/01/29 11:34:26;;;;;;;36.63;9.13;;;;;;;;;;5022501;28;20029;-68
2021/01/29 11:36:55;;;;;;;26.52;8.63;;;;;;;;;;5023213;28;20030;-68
2021/01/29 11:39:30;;;;;;;27.80;8.90;;;;;;;;;;5015054;28;20034;-68
2021/01/29 11:42:00;;;;;;;24.73;6.30;;;;;;;;;;5016031;28;20041;-67
2021/01/29 11:44:38;;;;;;;30.38;7.70;;;;;;;;;;5024513;28;20065;-68
2021/01/29 11:47:16;;;;;;;17.42;5.13;;;;;;;;;;5024492;28;20092;-67
2021/01/29 11:49:53;;;;;;;28.48;8.38;;;;;;;;;;5011362;28;20029;-68
2021/01/29 11:52:22;;;;;;;39.40;6.57;;;;;;;;;;5017852;28;20748;-67
2021/01/29 11:55:07;;;;;;;24.95;6.65;;;;;;;;;;5027502;28;20045;-68
2021/01/29 11:57:33;;;;;;;15.60;4.28;;;;;;;;;;5021318;28;20039;-68
2021/01/29 11:59:59;;;;;;;27.77;6.85;;;;;;;;;;5027560;28;20026;-68
2021/01/29 12:02:34;;;;;;;28.80;7.55;;;;;;;;;;5045942;28;20477;-67
2021/01/29 12:05:23;;;;;;;31.35;6.85;;;;;;;;;;5018748;28;20374;-65
2021/01/29 12:08:03;;;;;;;23.45;6.90;;;;;;;;;;5023354;28;20096;-68
2021/01/29 12:10:35;;;;;;;16.48;5.05;;;;;;;;;;5014187;28;20049;-68
2021/01/29 12:13:07;;;;;;;22.40;5.25;;;;;;;;;;5029786;28;20033;-68
2021/01/29 12:16:08;;;;;;;27.45;6.07;;;;;;;;;;5020141;28;20018;-67
2021/01/29 12:18:35;;;;;;;29.23;8.05;;;;;;;;;;5025575;28;20060;-68
2021/01/29 12:21:09;;;;;;;25.65;7.35;;;;;;;;;;5023719;28;20123;-67
2021/01/29 12:23:41;;;;;;;28.85;7.35;;;;;;;;;;5009802;28;20159;-68
2021/01/29 12:26:18;;;;;;;25.52;8.25;;;;;;;;;;5017089;28;20339;-67
2021/01/29 12:29:00;;;;;;;14.35;4.43;;;;;;;;;;5025077;28;20224;-67
2021/01/29 12:31:29;;;;;;;18.52;4.05;;;;;;;;;;5024768;28;20091;-67
2021/01/29 12:33:57;;;;;;;18.85;5.07;;;;;;;;;;5026894;28;20538;-68
2021/01/29 12:36:25;;;;;;;29.83;9.02;;;;;;;;;;5027028;28;20041;-68
2021/01/29 12:39:06;;;;;;;12.35;3.95;;;;;;;;;;5024324;28;20033;-68
2021/01/29 12:41:51;;;;;;;22.40;5.50;;;;;;;;;;5028865;28;20064;-68
2021/01/29 12:44:36;;;;;;;13.63;4.32;;;;;;;;;;5023266;28;20049;-68
2021/01/29 12:47:07;;;;;;;16.35;4.15;;;;;;;;;;5026309;28;20045;-67
2021/01/29 12:49:40;;;;;;;17.95;6.18;;;;;;;;;;5021775;28;20025;-68
2021/01/29 12:52:12;;;;;;;23.25;5.38;;;;;;;;;;5024374;28;21091;-68
2021/01/29 12:54:47;;;;;;;24.92;7.45;;;;;;;;;;5027882;28;20128;-68
2021/01/29 12:57:34;;;;;;;19.92;5.72;;;;;;;;;;5022173;28;20658;-68
2021/01/29 13:00:08;;;;;;;36.22;10.57;;;;;;;;;;5025518;28;20041;-69
2021/01/29 13:02:37;;;;;;;21.00;6.30;;;;;;;;;;5019514;28;20551;-68
2021/01/29 13:05:12;;;;;;;19.67;6.18;;;;;;;;;;5019901;28;20037;-68
2021/01/29 13:07:45;;;;;;;24.65;6.75;;;;;;;;;;5009927;28;20026;-68
2021/01/29 13:10:18;;;;;;;21.88;6.70;;;;;;;;;;5019756;28;20037;-66
2021/01/29 13:12:46;;;;;;;30.73;7.53;;;;;;;;;;5020215;28;20608;-68
2021/01/29 13:15:23;;;;;;;34.10;13.02;;;;;;;;;;5013708;28;20017;-68
2021/01/29 13:17:52;;;;;;;24.80;11.77;;;;;;;;;;5026573;28;20195;-68
2021/01/29 13:20:24;;;;;;;25.50;8.35;;;;;;;;;;5024606;28;20064;-68
2021/01/29 13:22:57;;;;;;;26.70;6.43;;;;;;;;;;5016016;28;20034;-68
2021/01/29 13:25:25;;;;;;;19.50;7.68;;;;;;;;;;5017190;28;20142;-69
2021/01/29 13:27:57;;;;;;;22.85;7.65;;;;;;;;;;5015306;28;20588;-68
2021/01/29 13:30:24;;;;;;;35.38;10.40;;;;;;;;;;5020663;28;20044;-69
2021/01/29 13:32:50;;;;;;;28.52;8.65;;;;;;;;;;5020187;28;20106;-69
2021/01/29 13:35:21;;;;;;;32.42;8.05;;;;;;;;;;5010709;28;20068;-68
2021/01/29 13:37:47;;;;;;;28.80;8.63;;;;;;;;;;5012745;28;20041;-67
2021/01/29 13:40:40;;;;;;;31.60;8.25;;;;;;;;;;5015968;28;20416;-67
2021/01/29 13:43:11;;;;;;;32.63;10.85;;;;;;;;;;5020437;28;20123;-69
2021/01/29 13:45:37;;;;;;;36.47;7.72;;;;;;;;;;5035345;28;20493;-69
2021/01/29 13:48:09;;;;;;;32.85;5.95;;;;;;;;;;5027621;28;20493;-67
2021/01/29 13:50:40;;;;;;;21.67;6.93;;;;;;;;;;5022574;28;20020;-67
2021/01/29 13:53:08;;;;;;;24.08;7.25;;;;;;;;;;5027786;28;20064;-67
2021/01/29 13:55:38;;;;;;;29.17;8.10;;;;;;;;;;5033299;28;20508;-69
2021/01/29 13:58:05;;;;;;;;;;;;;;;;;;5026781;28;20026;-69
2021/01/29 14:00:34;;;;;;;21.10;5.13;;;;;;;;;;5019491;28;19919;-69
2021/01/29 14:03:06;;;;;;;27.55;5.88;;;;;;;;;;5022461;28;20036;-68
2021/01/29 14:05:33;;;;;;;15.65;5.65;;;;;;;;;;5028131;28;20418;-69
2021/01/29 14:08:04;;;;;;;19.58;6.32;;;;;;;;;;5027183;28;20550;-68
2021/01/29 14:10:33;;;;;;;18.83;6.55;;;;;;;;;;5025270;28;20021;-66
2021/01/29 14:13:19;;;;;;;28.20;10.85;;;;;;;;;;5031157;28;20067;-68
2021/01/29 14:16:01;;;;;;;24.95;6.85;;;;;;;;;;5024551;28;20052;-69
2021/01/29 14:18:42;;;;;;;25.35;10.20;;;;;;;;;;5025102;28;20021;-67
2021/01/29 14:21:11;;;;;;;33.03;10.45;;;;;;;;;;5013863;28;20566;-69
2021/01/29 14:23:37;;;;;;;19.10;6.55;;;;;;;;;;5017507;28;20029;-66
2021/01/29 14:26:15;;;;;;;28.83;9.90;;;;;;;;;;5022189;28;20029;-67
2021/01/29 14:29:02;;;;;;;17.70;4.30;;;;;;;;;;5022515;28;20021;-67
2021/01/29 14:31:31;;;;;;;16.50;3.92;;;;;;;;;;5019127;28;20025;-68
2021/01/29 14:34:03;;;;;;;15.65;3.35;;;;;;;;;;5031799;28;20047;-67
2021/01/29 14:36:48;;;;;;;19.08;4.53;;;;;;;;;;5028300;28;20022;-67
2021/01/29 14:39:33;;;;;;;11.48;3.38;;;;;;;;;;5011362;28;20050;-67
2021/01/29 14:42:01;;;;;;;15.93;5.13;;;;;;;;;;5025587;28;20076;-67
2021/01/29 14:44:41;;;;;;;12.75;3.50;;;;;;;;;;5028658;28;20018;-68